sensor_id;sensor_type;location;lat;lon;timestamp;pressure;altitude;pressure_sealevel;temperature;humidity
11878;BME280;5998;42.676;23.268;2024-02-21T00:01:15;95487.50;;;6.28;100.00
11878;BME280;5998;42.676;23.268;2024-02-21T00:03:42;95477.84;;;6.13;100.00
11878;BME280;5998;42.676;23.268;2024-02-21T00:06:09;95476.22;;;6.31;100.00
11878;BME280;5998;42.676;23.268;2024-02-21T00:08:36;95479.25;;;6.24;100.00
11878;BME280;5998;42.676;23.268;2024-02-21T00:11:03;95476.59;;;6.24;100.00
11878;BME280;5998;42.676;23.268;2024-02-21T00:13:31;95480.97;;;6.20;100.00
11878;BME280;5998;42.676;23.268;2024-02-21T00:15:59;95479.47;;;6.28;100.00
11878;BME280;5998;42.676;23.268;2024-02-21T00:18:26;95468.56;;;6.24;100.00
11878;BME280;5998;42.676;23.268;2024-02-21T00:20:53;95475.09;;;6.32;100.00
11878;BME280;5998;42.676;23.268;2024-02-21T00:23:19;95471.66;;;6.18;100.00
11878;BME280;5998;42.676;23.268;2024-02-21T00:25:46;95464.69;;;6.17;100.00
11878;BME280;5998;42.676;23.268;2024-02-21T00:28:13;95469.47;;;6.20;100.00
11878;BME280;5998;42.676;23.268;2024-02-21T00:30:41;95471.41;;;6.01;100.00
11878;BME280;5998;42.676;23.268;2024-02-21T00:33:07;95468.03;;;5.95;100.00
11878;BME280;5998;42.676;23.268;2024-02-21T00:35:34;95477.53;;;5.87;100.00
11878;BME280;5998;42.676;23.268;2024-02-21T00:38:01;95481.72;;;5.75;100.00
11878;BME280;5998;42.676;23.268;2024-02-21T00:40:28;95464.09;;;5.74;100.00
11878;BME280;5998;42.676;23.268;2024-02-21T00:42:55;95461.41;;;5.92;100.00
11878;BME280;5998;42.676;23.268;2024-02-21T00:45:22;95465.75;;;6.02;100.00
11878;BME280;5998;42.676;23.268;2024-02-21T00:47:50;95464.25;;;5.96;100.00
11878;BME280;5998;42.676;23.268;2024-02-21T00:50:16;95461.50;;;5.87;100.00
11878;BME280;5998;42.676;23.268;2024-02-21T00:52:43;95461.91;;;5.94;100.00
11878;BME280;5998;42.676;23.268;2024-02-21T00:55:10;95452.97;;;5.99;100.00
11878;BME280;5998;42.676;23.268;2024-02-21T00:57:37;95454.56;;;6.00;100.00
11878;BME280;5998;42.676;23.268;2024-02-21T01:00:05;95449.53;;;5.99;100.00
11878;BME280;5998;42.676;23.268;2024-02-21T01:02:32;95443.00;;;6.05;100.00
11878;BME280;5998;42.676;23.268;2024-02-21T01:05:01;95445.19;;;6.16;100.00
11878;BME280;5998;42.676;23.268;2024-02-21T01:07:28;95435.59;;;6.15;100.00
11878;BME280;5998;42.676;23.268;2024-02-21T01:09:55;95440.75;;;6.25;100.00
11878;BME280;5998;42.676;23.268;2024-02-21T01:12:21;95438.56;;;6.27;100.00
11878;BME280;5998;42.676;23.268;2024-02-21T01:14:48;95434.59;;;6.25;100.00
11878;BME280;5998;42.676;23.268;2024-02-21T01:17:15;95430.91;;;6.21;100.00
11878;BME280;5998;42.676;23.268;2024-02-21T01:19:42;95428.44;;;6.24;100.00
11878;BME280;5998;42.676;23.268;2024-02-21T01:22:10;95429.47;;;6.28;100.00
11878;BME280;5998;42.676;23.268;2024-02-21T01:24:36;95430.44;;;6.32;100.00
11878;BME280;5998;42.676;23.268;2024-02-21T01:27:03;95433.22;;;6.41;100.00
11878;BME280;5998;42.676;23.268;2024-02-21T01:29:30;95424.28;;;6.32;100.00
11878;BME280;5998;42.676;23.268;2024-02-21T01:31:57;95425.78;;;6.24;100.00
11878;BME280;5998;42.676;23.268;2024-02-21T01:34:23;95426.47;;;6.16;100.00
11878;BME280;5998;42.676;23.268;2024-02-21T01:36:50;95423.09;;;6.24;100.00
11878;BME280;5998;42.676;23.268;2024-02-21T01:39:18;95418.16;;;6.31;100.00
11878;BME280;5998;42.676;23.268;2024-02-21T01:41:45;95421.03;;;6.35;100.00
11878;BME280;5998;42.676;23.268;2024-02-21T01:44:11;95412.50;;;6.46;100.00
11878;BME280;5998;42.676;23.268;2024-02-21T01:46:38;95412.28;;;6.43;100.00
11878;BME280;5998;42.676;23.268;2024-02-21T01:49:05;95412.72;;;6.36;100.00
11878;BME280;5998;42.676;23.268;2024-02-21T01:51:32;95403.19;;;6.30;100.00
11878;BME280;5998;42.676;23.268;2024-02-21T01:53:59;95404.97;;;6.35;100.00
11878;BME280;5998;42.676;23.268;2024-02-21T01:56:27;95402.88;;;6.32;100.00
11878;BME280;5998;42.676;23.268;2024-02-21T01:58:55;95406.38;;;6.32;100.00
11878;BME280;5998;42.676;23.268;2024-02-21T02:01:22;95401.13;;;6.41;100.00
11878;BME280;5998;42.676;23.268;2024-02-21T02:03:49;95409.81;;;6.46;100.00
11878;BME280;5998;42.676;23.268;2024-02-21T02:06:16;95408.25;;;6.45;100.00
11878;BME280;5998;42.676;23.268;2024-02-21T02:08:43;95409.34;;;6.44;100.00
11878;BME280;5998;42.676;23.268;2024-02-21T02:11:09;95410.03;;;6.50;100.00
11878;BME280;5998;42.676;23.268;2024-02-21T02:13:37;95407.63;;;6.48;100.00
11878;BME280;5998;42.676;23.268;2024-02-21T02:16:05;95405.16;;;6.52;100.00
11878;BME280;5998;42.676;23.268;2024-02-21T02:18:31;95396.94;;;6.48;100.00
11878;BME280;5998;42.676;23.268;2024-02-21T02:20:58;95400.00;;;6.56;100.00
11878;BME280;5998;42.676;23.268;2024-02-21T02:23:28;95388.50;;;6.55;100.00
11878;BME280;5998;42.676;23.268;2024-02-21T02:25:55;95395.25;;;6.52;100.00
11878;BME280;5998;42.676;23.268;2024-02-21T02:28:22;95379.91;;;6.58;100.00
11878;BME280;5998;42.676;23.268;2024-02-21T02:30:49;95380.38;;;6.60;100.00
11878;BME280;5998;42.676;23.268;2024-02-21T02:33:16;95386.63;;;6.56;100.00
11878;BME280;5998;42.676;23.268;2024-02-21T02:35:43;95374.47;;;6.49;100.00
11878;BME280;5998;42.676;23.268;2024-02-21T02:38:11;95374.75;;;6.48;100.00
11878;BME280;5998;42.676;23.268;2024-02-21T02:40:39;95377.63;;;6.51;100.00
11878;BME280;5998;42.676;23.268;2024-02-21T02:43:06;95378.50;;;6.61;100.00
11878;BME280;5998;42.676;23.268;2024-02-21T02:45:33;95382.47;;;6.63;100.00
11878;BME280;5998;42.676;23.268;2024-02-21T02:48:00;95383.97;;;6.56;100.00
11878;BME280;5998;42.676;23.268;2024-02-21T02:50:27;95371.38;;;6.56;100.00
11878;BME280;5998;42.676;23.268;2024-02-21T02:52:54;95386.63;;;6.56;100.00
11878;BME280;5998;42.676;23.268;2024-02-21T02:55:21;95377.22;;;6.58;100.00
11878;BME280;5998;42.676;23.268;2024-02-21T02:57:49;95394.34;;;6.57;100.00
11878;BME280;5998;42.676;23.268;2024-02-21T03:00:17;95396.34;;;6.51;100.00
11878;BME280;5998;42.676;23.268;2024-02-21T03:02:46;95389.13;;;6.38;100.00
11878;BME280;5998;42.676;23.268;2024-02-21T03:05:15;95393.56;;;6.43;100.00
11878;BME280;5998;42.676;23.268;2024-02-21T03:07:42;95371.19;;;6.39;100.00
11878;BME280;5998;42.676;23.268;2024-02-21T03:10:10;95384.34;;;6.49;100.00
11878;BME280;5998;42.676;23.268;2024-02-21T03:12:37;95392.00;;;6.42;100.00
11878;BME280;5998;42.676;23.268;2024-02-21T03:15:06;95397.44;;;6.50;100.00
11878;BME280;5998;42.676;23.268;2024-02-21T03:17:33;95399.03;;;6.38;100.00
11878;BME280;5998;42.676;23.268;2024-02-21T03:20:01;95396.19;;;6.34;100.00
11878;BME280;5998;42.676;23.268;2024-02-21T03:22:30;95403.78;;;6.41;100.00
11878;BME280;5998;42.676;23.268;2024-02-21T03:24:57;95404.91;;;6.40;100.00
11878;BME280;5998;42.676;23.268;2024-02-21T03:27:24;95404.28;;;6.29;100.00
11878;BME280;5998;42.676;23.268;2024-02-21T03:29:51;95400.91;;;6.37;100.00
11878;BME280;5998;42.676;23.268;2024-02-21T03:32:19;95407.47;;;6.45;100.00
11878;BME280;5998;42.676;23.268;2024-02-21T03:34:45;95399.44;;;6.31;100.00
11878;BME280;5998;42.676;23.268;2024-02-21T03:37:12;95401.53;;;6.34;100.00
11878;BME280;5998;42.676;23.268;2024-02-21T03:39:39;95402.81;;;6.37;100.00
11878;BME280;5998;42.676;23.268;2024-02-21T03:42:06;95394.81;;;6.23;100.00
11878;BME280;5998;42.676;23.268;2024-02-21T03:44:33;95413.19;;;6.38;100.00
11878;BME280;5998;42.676;23.268;2024-02-21T03:47:00;95419.56;;;6.42;100.00
11878;BME280;5998;42.676;23.268;2024-02-21T03:49:28;95412.00;;;6.44;100.00
11878;BME280;5998;42.676;23.268;2024-02-21T03:51:55;95420.84;;;6.31;100.00
11878;BME280;5998;42.676;23.268;2024-02-21T03:54:21;95422.31;;;6.37;100.00
11878;BME280;5998;42.676;23.268;2024-02-21T03:56:48;95418.56;;;6.38;100.00
11878;BME280;5998;42.676;23.268;2024-02-21T03:59:15;95413.19;;;6.38;100.00
11878;BME280;5998;42.676;23.268;2024-02-21T04:01:41;95413.09;;;6.43;100.00
11878;BME280;5998;42.676;23.268;2024-02-21T04:04:09;95418.06;;;6.50;100.00
11878;BME280;5998;42.676;23.268;2024-02-21T04:06:46;95405.78;;;6.35;100.00
11878;BME280;5998;42.676;23.268;2024-02-21T04:09:12;95417.47;;;6.39;100.00
11878;BME280;5998;42.676;23.268;2024-02-21T04:11:39;95416.38;;;6.40;100.00
11878;BME280;5998;42.676;23.268;2024-02-21T04:14:06;95413.09;;;6.43;100.00
11878;BME280;5998;42.676;23.268;2024-02-21T04:16:32;95412.13;;;6.39;100.00
11878;BME280;5998;42.676;23.268;2024-02-21T04:18:59;95412.28;;;6.43;100.00
11878;BME280;5998;42.676;23.268;2024-02-21T04:21:27;95404.59;;;6.41;100.00
11878;BME280;5998;42.676;23.268;2024-02-21T04:23:55;95413.19;;;6.38;100.00
11878;BME280;5998;42.676;23.268;2024-02-21T04:26:21;95399.44;;;6.31;100.00
11878;BME280;5998;42.676;23.268;2024-02-21T04:28:48;95409.72;;;6.24;100.00
11878;BME280;5998;42.676;23.268;2024-02-21T04:31:15;95411.91;;;6.22;100.00
11878;BME280;5998;42.676;23.268;2024-02-21T04:33:41;95413.31;;;6.20;100.00
11878;BME280;5998;42.676;23.268;2024-02-21T04:36:08;95404.28;;;6.16;100.00
11878;BME280;5998;42.676;23.268;2024-02-21T04:38:35;95390.31;;;6.05;100.00
11878;BME280;5998;42.676;23.268;2024-02-21T04:41:03;95415.50;;;6.18;100.00
11878;BME280;5998;42.676;23.268;2024-02-21T04:43:30;95412.13;;;6.12;100.00
11878;BME280;5998;42.676;23.268;2024-02-21T04:45:56;95418.34;;;6.08;100.00
11878;BME280;5998;42.676;23.268;2024-02-21T04:48:23;95418.94;;;6.05;100.00
11878;BME280;5998;42.676;23.268;2024-02-21T04:50:50;95412.97;;;5.94;100.00
11878;BME280;5998;42.676;23.268;2024-02-21T04:53:16;95427.03;;;5.86;100.00
11878;BME280;5998;42.676;23.268;2024-02-21T04:55:44;95422.91;;;5.75;100.00
11878;BME280;5998;42.676;23.268;2024-02-21T04:58:12;95430.53;;;5.68;100.00
11878;BME280;5998;42.676;23.268;2024-02-21T05:00:39;95415.00;;;5.70;100.00
11878;BME280;5998;42.676;23.268;2024-02-21T05:03:05;95424.50;;;5.76;100.00
11878;BME280;5998;42.676;23.268;2024-02-21T05:05:32;95416.34;;;5.86;100.00
11878;BME280;5998;42.676;23.268;2024-02-21T05:07:58;95411.38;;;5.79;100.00
11878;BME280;5998;42.676;23.268;2024-02-21T05:10:25;95414.38;;;5.91;100.00
11878;BME280;5998;42.676;23.268;2024-02-21T05:12:52;95419.50;;;5.88;100.00
11878;BME280;5998;42.676;23.268;2024-02-21T05:15:20;95429.91;;;5.89;100.00
11878;BME280;5998;42.676;23.268;2024-02-21T05:17:47;95428.53;;;5.92;100.00
11878;BME280;5998;42.676;23.268;2024-02-21T05:20:13;95426.44;;;5.89;100.00
11878;BME280;5998;42.676;23.268;2024-02-21T05:22:40;95430.81;;;5.85;100.00
11878;BME280;5998;42.676;23.268;2024-02-21T05:25:07;95431.22;;;5.92;100.00
11878;BME280;5998;42.676;23.268;2024-02-21T05:27:34;95432.19;;;5.96;100.00
11878;BME280;5998;42.676;23.268;2024-02-21T05:30:02;95431.50;;;5.90;100.00
11878;BME280;5998;42.676;23.268;2024-02-21T05:32:30;95430.63;;;6.09;100.00
11878;BME280;5998;42.676;23.268;2024-02-21T05:34:57;95433.09;;;6.05;100.00
11878;BME280;5998;42.676;23.268;2024-02-21T05:37:24;95427.66;;;6.10;100.00
11878;BME280;5998;42.676;23.268;2024-02-21T05:39:51;95431.91;;;6.11;100.00
11878;BME280;5998;42.676;23.268;2024-02-21T05:42:17;95426.56;;;6.25;100.00
11878;BME280;5998;42.676;23.268;2024-02-21T05:44:44;95431.81;;;6.30;100.00
11878;BME280;5998;42.676;23.268;2024-02-21T05:47:10;95429.34;;;6.33;100.00
11878;BME280;5998;42.676;23.268;2024-02-21T05:49:41;95438.56;;;6.41;100.00
11878;BME280;5998;42.676;23.268;2024-02-21T05:52:08;95438.78;;;6.31;100.00
11878;BME280;5998;42.676;23.268;2024-02-21T05:54:37;95444.31;;;6.48;100.00
11878;BME280;5998;42.676;23.268;2024-02-21T05:57:04;95439.94;;;6.52;100.00
11878;BME280;5998;42.676;23.268;2024-02-21T05:59:31;95452.22;;;6.67;100.00
11878;BME280;5998;42.676;23.268;2024-02-21T06:01:58;95450.94;;;6.78;100.00
11878;BME280;5998;42.676;23.268;2024-02-21T06:04:24;95450.72;;;6.88;100.00
11878;BME280;5998;42.676;23.268;2024-02-21T06:06:52;95451.38;;;6.93;100.00
11878;BME280;5998;42.676;23.268;2024-02-21T06:09:19;95454.16;;;7.02;100.00
11878;BME280;5998;42.676;23.268;2024-02-21T06:11:46;95451.69;;;7.05;100.00
11878;BME280;5998;42.676;23.268;2024-02-21T06:14:14;95457.00;;;7.19;100.00
11878;BME280;5998;42.676;23.268;2024-02-21T06:16:41;95447.56;;;7.22;100.00
11878;BME280;5998;42.676;23.268;2024-02-21T06:19:07;95456.06;;;7.24;100.00
11878;BME280;5998;42.676;23.268;2024-02-21T06:21:34;95452.38;;;7.33;100.00
11878;BME280;5998;42.676;23.268;2024-02-21T06:24:02;95461.94;;;7.48;100.00
11878;BME280;5998;42.676;23.268;2024-02-21T06:26:29;95458.28;;;7.44;100.00
11878;BME280;5998;42.676;23.268;2024-02-21T06:28:55;95460.41;;;7.33;100.00
11878;BME280;5998;42.676;23.268;2024-02-21T06:31:22;95462.91;;;7.30;100.00
11878;BME280;5998;42.676;23.268;2024-02-21T06:33:49;95456.16;;;7.32;100.00
11878;BME280;5998;42.676;23.268;2024-02-21T06:36:15;95471.38;;;7.45;100.00
11878;BME280;5998;42.676;23.268;2024-02-21T06:38:42;95471.03;;;7.38;100.00
11878;BME280;5998;42.676;23.268;2024-02-21T06:41:15;95469.19;;;7.47;100.00
11878;BME280;5998;42.676;23.268;2024-02-21T06:43:43;95472.53;;;7.53;100.00
11878;BME280;5998;42.676;23.268;2024-02-21T06:46:10;95476.38;;;7.38;100.00
11878;BME280;5998;42.676;23.268;2024-02-21T06:48:37;95480.53;;;7.44;100.00
11878;BME280;5998;42.676;23.268;2024-02-21T06:51:04;95481.00;;;7.46;100.00
11878;BME280;5998;42.676;23.268;2024-02-21T06:53:31;95483.91;;;7.58;100.00
11878;BME280;5998;42.676;23.268;2024-02-21T06:55:57;95478.22;;;7.73;100.00
11878;BME280;5998;42.676;23.268;2024-02-21T06:58:25;95475.72;;;7.77;100.00
11878;BME280;5998;42.676;23.268;2024-02-21T07:00:52;95482.53;;;7.83;100.00
11878;BME280;5998;42.676;23.268;2024-02-21T07:03:19;95466.09;;;7.76;100.00
11878;BME280;5998;42.676;23.268;2024-02-21T07:05:45;95489.88;;;8.00;100.00
11878;BME280;5998;42.676;23.268;2024-02-21T07:08:12;95495.75;;;8.02;100.00
11878;BME280;5998;42.676;23.268;2024-02-21T07:10:38;95488.34;;;7.77;100.00
11878;BME280;5998;42.676;23.268;2024-02-21T07:13:05;95488.41;;;7.85;100.00
11878;BME280;5998;42.676;23.268;2024-02-21T07:15:33;95484.25;;;7.79;100.00
11878;BME280;5998;42.676;23.268;2024-02-21T07:18:03;95487.47;;;7.90;100.00
11878;BME280;5998;42.676;23.268;2024-02-21T07:20:29;95485.66;;;7.77;100.00
11878;BME280;5998;42.676;23.268;2024-02-21T07:22:58;95492.41;;;7.74;100.00
11878;BME280;5998;42.676;23.268;2024-02-21T07:25:25;95497.78;;;7.74;100.00
11878;BME280;5998;42.676;23.268;2024-02-21T07:27:52;95497.09;;;7.91;100.00
11878;BME280;5998;42.676;23.268;2024-02-21T07:30:18;95497.16;;;7.99;100.00
11878;BME280;5998;42.676;23.268;2024-02-21T07:32:49;95495.25;;;8.00;100.00
11878;BME280;5998;42.676;23.268;2024-02-21T07:35:17;95490.22;;;7.98;100.00
11878;BME280;5998;42.676;23.268;2024-02-21T07:37:44;95489.75;;;8.27;100.00
11878;BME280;5998;42.676;23.268;2024-02-21T07:40:13;95487.47;;;8.43;100.00
11878;BME280;5998;42.676;23.268;2024-02-21T07:42:40;95481.78;;;8.44;100.00
11878;BME280;5998;42.676;23.268;2024-02-21T07:45:07;95486.22;;;8.40;100.00
11878;BME280;5998;42.676;23.268;2024-02-21T07:47:34;95493.06;;;8.24;100.00
11878;BME280;5998;42.676;23.268;2024-02-21T07:50:02;95481.94;;;8.39;100.00
11878;BME280;5998;42.676;23.268;2024-02-21T07:52:29;95468.94;;;8.32;100.00
11878;BME280;5998;42.676;23.268;2024-02-21T07:54:56;95479.47;;;8.51;100.00
11878;BME280;5998;42.676;23.268;2024-02-21T07:57:22;95481.03;;;8.52;100.00
11878;BME280;5998;42.676;23.268;2024-02-21T07:59:49;95475.84;;;8.25;100.00
11878;BME280;5998;42.676;23.268;2024-02-21T08:02:16;95480.00;;;8.31;100.00
11878;BME280;5998;42.676;23.268;2024-02-21T08:04:43;95476.06;;;8.28;100.00
11878;BME280;5998;42.676;23.268;2024-02-21T08:07:11;95478.31;;;8.44;100.00
11878;BME280;5998;42.676;23.268;2024-02-21T08:09:39;95480.28;;;8.29;100.00
11878;BME280;5998;42.676;23.268;2024-02-21T08:12:06;95472.06;;;8.26;100.00
11878;BME280;5998;42.676;23.268;2024-02-21T08:14:33;95471.97;;;8.09;100.00
11878;BME280;5998;42.676;23.268;2024-02-21T08:17:00;95479.31;;;8.25;100.00
11878;BME280;5998;42.676;23.268;2024-02-21T08:19:26;95478.91;;;8.32;100.00
11878;BME280;5998;42.676;23.268;2024-02-21T08:21:53;95474.69;;;8.40;100.00
11878;BME280;5998;42.676;23.268;2024-02-21T08:24:21;95471.78;;;8.67;100.00
11878;BME280;5998;42.676;23.268;2024-02-21T08:26:48;95470.53;;;8.73;100.00
11878;BME280;5998;42.676;23.268;2024-02-21T08:29:15;95469.41;;;8.74;100.00
11878;BME280;5998;42.676;23.268;2024-02-21T08:31:42;95474.53;;;8.84;100.00
11878;BME280;5998;42.676;23.268;2024-02-21T08:34:08;95469.03;;;9.15;100.00
11878;BME280;5998;42.676;23.268;2024-02-21T08:36:36;95473.47;;;9.11;100.00
11878;BME280;5998;42.676;23.268;2024-02-21T08:39:03;95468.28;;;9.14;100.00
11878;BME280;5998;42.676;23.268;2024-02-21T08:41:32;95473.75;;;9.09;100.00
11878;BME280;5998;42.676;23.268;2024-02-21T08:43:59;95479.94;;;9.10;100.00
11878;BME280;5998;42.676;23.268;2024-02-21T08:46:26;95479.91;;;8.93;100.00
11878;BME280;5998;42.676;23.268;2024-02-21T08:48:53;95473.44;;;9.02;100.00
11878;BME280;5998;42.676;23.268;2024-02-21T08:51:20;95469.94;;;8.93;100.00
11878;BME280;5998;42.676;23.268;2024-02-21T08:53:48;95477.72;;;8.95;100.00
11878;BME280;5998;42.676;23.268;2024-02-21T08:56:14;95480.53;;;8.89;100.00
11878;BME280;5998;42.676;23.268;2024-02-21T08:58:43;95482.25;;;8.85;100.00
11878;BME280;5998;42.676;23.268;2024-02-21T09:01:09;95486.47;;;8.69;100.00
11878;BME280;5998;42.676;23.268;2024-02-21T09:03:37;95469.78;;;8.42;100.00
11878;BME280;5998;42.676;23.268;2024-02-21T09:06:04;95486.25;;;8.57;100.00
11878;BME280;5998;42.676;23.268;2024-02-21T09:08:31;95481.72;;;8.66;100.00
11878;BME280;5998;42.676;23.268;2024-02-21T09:10:58;95461.44;;;8.43;100.00
11878;BME280;5998;42.676;23.268;2024-02-21T09:13:24;95477.88;;;8.50;100.00
11878;BME280;5998;42.676;23.268;2024-02-21T09:15:53;95488.97;;;8.66;100.00
11878;BME280;5998;42.676;23.268;2024-02-21T09:18:20;95488.84;;;8.71;100.00
11878;BME280;5998;42.676;23.268;2024-02-21T09:20:46;95477.97;;;8.76;100.00
11878;BME280;5998;42.676;23.268;2024-02-21T09:23:13;95486.94;;;8.71;100.00
11878;BME280;5998;42.676;23.268;2024-02-21T09:25:40;95485.88;;;8.42;100.00
11878;BME280;5998;42.676;23.268;2024-02-21T09:28:07;95480.56;;;8.50;100.00
11878;BME280;5998;42.676;23.268;2024-02-21T09:30:35;95485.16;;;8.58;100.00
11878;BME280;5998;42.676;23.268;2024-02-21T09:33:04;95482.00;;;8.56;100.00
11878;BME280;5998;42.676;23.268;2024-02-21T09:35:31;95489.19;;;8.78;100.00
11878;BME280;5998;42.676;23.268;2024-02-21T09:37:59;95485.78;;;9.03;100.00
11878;BME280;5998;42.676;23.268;2024-02-21T09:40:25;95473.50;;;9.36;100.00
11878;BME280;5998;42.676;23.268;2024-02-21T09:43:02;95485.81;;;9.29;100.00
11878;BME280;5998;42.676;23.268;2024-02-21T09:45:30;95479.34;;;9.47;100.00
11878;BME280;5998;42.676;23.268;2024-02-21T09:48:10;95476.19;;;9.36;100.00
11878;BME280;5998;42.676;23.268;2024-02-21T09:50:43;95476.47;;;9.26;100.00
11878;BME280;5998;42.676;23.268;2024-02-21T09:53:12;95479.13;;;9.09;100.00
11878;BME280;5998;42.676;23.268;2024-02-21T09:55:39;95475.53;;;9.22;100.00
11878;BME280;5998;42.676;23.268;2024-02-21T09:58:07;95477.13;;;9.32;100.00
11878;BME280;5998;42.676;23.268;2024-02-21T10:00:35;95466.56;;;9.53;100.00
11878;BME280;5998;42.676;23.268;2024-02-21T10:03:02;95466.69;;;9.65;100.00
11878;BME280;5998;42.676;23.268;2024-02-21T10:05:35;95473.13;;;9.98;100.00
11878;BME280;5998;42.676;23.268;2024-02-21T10:08:03;95462.47;;;10.36;100.00
11878;BME280;5998;42.676;23.268;2024-02-21T10:10:30;95463.03;;;10.58;100.00
11878;BME280;5998;42.676;23.268;2024-02-21T10:13:06;95459.91;;;10.48;100.00
11878;BME280;5998;42.676;23.268;2024-02-21T10:15:33;95459.91;;;10.48;100.00
11878;BME280;5998;42.676;23.268;2024-02-21T10:18:00;95459.50;;;10.29;100.00
11878;BME280;5998;42.676;23.268;2024-02-21T10:20:28;95451.16;;;9.87;100.00
11878;BME280;5998;42.676;23.268;2024-02-21T10:23:04;95451.13;;;10.04;100.00
11878;BME280;5998;42.676;23.268;2024-02-21T10:25:33;95447.03;;;10.07;100.00
11878;BME280;5998;42.676;23.268;2024-02-21T10:28:02;95444.47;;;10.11;100.00
11878;BME280;5998;42.676;23.268;2024-02-21T10:30:29;95433.75;;;10.48;100.00
11878;BME280;5998;42.676;23.268;2024-02-21T10:32:56;95434.47;;;10.66;100.00
11878;BME280;5998;42.676;23.268;2024-02-21T10:35:26;95423.41;;;10.88;100.00
11878;BME280;5998;42.676;23.268;2024-02-21T10:37:54;95411.69;;;11.13;100.00
11878;BME280;5998;42.676;23.268;2024-02-21T10:40:23;95406.44;;;11.17;100.00
11878;BME280;5998;42.676;23.268;2024-02-21T10:42:55;95399.72;;;11.23;100.00
11878;BME280;5998;42.676;23.268;2024-02-21T10:45:26;95404.44;;;11.47;100.00
11878;BME280;5998;42.676;23.268;2024-02-21T10:47:56;95385.38;;;11.72;100.00
11878;BME280;5998;42.676;23.268;2024-02-21T10:50:31;95385.13;;;12.10;100.00
11878;BME280;5998;42.676;23.268;2024-02-21T10:53:05;95375.13;;;12.47;100.00
11878;BME280;5998;42.676;23.268;2024-02-21T10:55:40;95376.25;;;12.82;94.96
11878;BME280;5998;42.676;23.268;2024-02-21T10:58:09;95371.41;;;12.76;90.77
11878;BME280;5998;42.676;23.268;2024-02-21T11:00:36;95361.06;;;12.54;90.77
11878;BME280;5998;42.676;23.268;2024-02-21T11:03:04;95362.88;;;12.50;76.34
11878;BME280;5998;42.676;23.268;2024-02-21T11:05:32;95364.31;;;12.47;84.07
11878;BME280;5998;42.676;23.268;2024-02-21T11:08:00;95346.78;;;12.29;86.34
11878;BME280;5998;42.676;23.268;2024-02-21T11:10:27;95348.22;;;12.26;89.09
11878;BME280;5998;42.676;23.268;2024-02-21T11:13:05;95359.03;;;12.26;88.51
11878;BME280;5998;42.676;23.268;2024-02-21T11:15:32;95356.34;;;12.26;87.31
11878;BME280;5998;42.676;23.268;2024-02-21T11:17:59;95345.19;;;12.16;86.16
11878;BME280;5998;42.676;23.268;2024-02-21T11:20:32;95364.53;;;12.06;88.23
11878;BME280;5998;42.676;23.268;2024-02-21T11:22:59;95362.09;;;11.80;87.57
11878;BME280;5998;42.676;23.268;2024-02-21T11:25:27;95368.50;;;11.55;92.46
11878;BME280;5998;42.676;23.268;2024-02-21T11:28:01;95358.94;;;11.24;93.47
11878;BME280;5998;42.676;23.268;2024-02-21T11:30:29;95353.69;;;10.87;95.16
11878;BME280;5998;42.676;23.268;2024-02-21T11:33:02;95355.16;;;10.55;96.87
11878;BME280;5998;42.676;23.268;2024-02-21T11:35:33;95362.38;;;10.42;94.85
11878;BME280;5998;42.676;23.268;2024-02-21T11:38:10;95357.09;;;10.54;94.77
11878;BME280;5998;42.676;23.268;2024-02-21T11:40:40;95352.06;;;10.44;95.38
11878;BME280;5998;42.676;23.268;2024-02-21T11:43:08;95354.56;;;10.49;95.82
11878;BME280;5998;42.676;23.268;2024-02-21T11:45:35;95358.88;;;10.42;97.16
11878;BME280;5998;42.676;23.268;2024-02-21T11:48:02;95347.28;;;10.50;99.23
11878;BME280;5998;42.676;23.268;2024-02-21T11:50:30;95352.84;;;10.45;98.76
11878;BME280;5998;42.676;23.268;2024-02-21T11:52:57;95307.91;;;10.07;100.00
11878;BME280;5998;42.676;23.268;2024-02-21T11:55:24;95322.59;;;10.19;100.00
11878;BME280;5998;42.676;23.268;2024-02-21T11:57:51;95347.00;;;10.43;100.00
11878;BME280;5998;42.676;23.268;2024-02-21T12:00:20;95339.38;;;10.16;100.00
11878;BME280;5998;42.676;23.268;2024-02-21T12:02:47;95339.66;;;10.23;100.00
11878;BME280;5998;42.676;23.268;2024-02-21T12:05:15;95339.19;;;10.12;100.00
11878;BME280;5998;42.676;23.268;2024-02-21T12:07:42;95328.94;;;10.14;100.00
11878;BME280;5998;42.676;23.268;2024-02-21T12:10:09;95331.63;;;10.14;100.00
11878;BME280;5998;42.676;23.268;2024-02-21T12:12:36;95333.16;;;10.24;100.00
11878;BME280;5998;42.676;23.268;2024-02-21T12:15:05;95333.34;;;10.19;100.00
11878;BME280;5998;42.676;23.268;2024-02-21T12:17:33;95332.41;;;10.06;100.00
11878;BME280;5998;42.676;23.268;2024-02-21T12:20:01;95325.50;;;9.96;100.00
11878;BME280;5998;42.676;23.268;2024-02-21T12:22:29;95322.22;;;9.91;100.00
11878;BME280;5998;42.676;23.268;2024-02-21T12:24:57;95321.22;;;9.95;100.00
11878;BME280;5998;42.676;23.268;2024-02-21T12:27:24;95324.09;;;9.90;100.00
11878;BME280;5998;42.676;23.268;2024-02-21T12:29:51;95324.06;;;9.99;100.00
11878;BME280;5998;42.676;23.268;2024-02-21T12:32:18;95320.75;;;10.02;100.00
11878;BME280;5998;42.676;23.268;2024-02-21T12:34:46;95325.28;;;10.10;100.00
11878;BME280;5998;42.676;23.268;2024-02-21T12:37:13;95317.69;;;10.12;100.00
11878;BME280;5998;42.676;23.268;2024-02-21T12:39:41;95323.66;;;9.88;100.00
11878;BME280;5998;42.676;23.268;2024-02-21T12:42:08;95313.97;;;9.87;100.00
11878;BME280;5998;42.676;23.268;2024-02-21T12:44:36;95270.75;;;9.63;100.00
11878;BME280;5998;42.676;23.268;2024-02-21T12:47:03;95314.56;;;10.01;100.00
11878;BME280;5998;42.676;23.268;2024-02-21T12:49:30;95312.38;;;9.95;100.00
11878;BME280;5998;42.676;23.268;2024-02-21T12:51:59;95299.53;;;10.00;100.00
11878;BME280;5998;42.676;23.268;2024-02-21T12:54:25;95297.44;;;10.15;100.00
11878;BME280;5998;42.676;23.268;2024-02-21T12:56:52;95306.06;;;10.29;100.00
11878;BME280;5998;42.676;23.268;2024-02-21T12:59:19;95302.34;;;10.42;100.00
11878;BME280;5998;42.676;23.268;2024-02-21T13:01:46;95297.28;;;10.40;100.00